Time;durP1;ratioP1;P1;durP2;ratioP2;P2;SDS_P1;SDS_P2;PMS_P1;PMS_P2;Temp;Humidity;BMP_temperature;BMP_pressure;BME280_temperature;BME280_humidity;BME280_pressure;Samples;Min_cycle;Max_cycle;Signal;HPM_P1;HPM_P2
2022/05/04 00:01:55;;;;;;;20.43;15.65;;;;;;;9.52;71.18;97190.97;1698500;84;25670;-77
2022/05/04 00:04:22;;;;;;;19.32;14.53;;;;;;;9.52;71.23;97195.53;1698517;83;26125;-74
2022/05/04 00:06:48;;;;;;;16.20;13.45;;;;;;;9.50;71.18;97190.35;1698083;84;25727;-75
2022/05/04 00:09:15;;;;;;;15.68;13.98;;;;;;;9.44;71.15;97188.48;1698393;84;28459;-73
2022/05/04 00:11:44;;;;;;;17.05;14.38;;;;;;;9.38;71.28;97189.33;1698370;84;25813;-74
2022/05/04 00:14:10;;;;;;;19.27;16.40;;;;;;;9.36;71.40;97189.53;1698754;84;25697;-74
2022/05/04 00:16:37;;;;;;;17.07;15.28;;;;;;;9.37;71.46;97190.36;1698496;84;26002;-76
2022/05/04 00:19:03;;;;;;;18.40;15.00;;;;;;;9.37;71.48;97196.58;1698646;84;25661;-75
2022/05/04 00:21:30;;;;;;;18.45;13.93;;;;;;;9.36;71.43;97193.58;1698592;84;27447;-74
2022/05/04 00:23:57;;;;;;;18.30;14.95;;;;;;;9.35;71.41;97195.13;1698458;84;26284;-75
2022/05/04 00:26:23;;;;;;;18.27;15.85;;;;;;;9.32;71.42;97188.28;1698546;84;25666;-77
2022/05/04 00:28:50;;;;;;;20.43;17.50;;;;;;;9.34;71.47;97186.73;1698625;84;26177;-74
2022/05/04 00:31:16;;;;;;;25.02;17.67;;;;;;;9.35;71.51;97195.13;1698713;84;25730;-77
2022/05/04 00:33:43;;;;;;;24.35;16.50;;;;;;;9.31;71.45;97190.66;1698584;84;27325;-74
2022/05/04 00:36:09;;;;;;;23.07;18.23;;;;;;;9.29;71.46;97194.63;1676077;84;25560;-75
2022/05/04 00:38:36;;;;;;;23.73;17.23;;;;;;;9.22;71.49;97191.09;1698708;84;25206;-78
2022/05/04 00:41:03;;;;;;;23.80;20.20;;;;;;;9.15;71.58;97197.02;1698508;84;25943;-76
2022/05/04 00:43:30;;;;;;;24.52;20.65;;;;;;;9.07;71.70;97200.72;1698647;84;25685;-73
2022/05/04 00:45:56;;;;;;;27.77;20.68;;;;;;;9.02;71.92;97197.83;1698501;84;28260;-77
2022/05/04 00:48:23;;;;;;;24.90;19.48;;;;;;;9.02;72.00;97200.02;1698458;84;25637;-76
2022/05/04 00:50:51;;;;;;;24.30;18.98;;;;;;;9.02;72.01;97205.39;1698622;84;25685;-76
2022/05/04 00:53:20;;;;;;;20.08;15.15;;;;;;;9.06;72.11;97209.03;1698508;84;27013;-76
2022/05/04 00:55:47;;;;;;;19.55;14.78;;;;;;;9.00;71.93;97220.92;1698622;84;25676;-74
2022/05/04 01:01:03;;;;;;;17.70;15.28;;;;;;;8.84;72.02;97217.78;1679552;84;25742;-75
2022/05/04 01:03:29;;;;;;;21.17;16.12;;;;;;;8.79;72.16;97218.42;1698573;84;25758;-74
2022/05/04 01:05:56;;;;;;;19.95;16.48;;;;;;;8.75;72.23;97223.05;1698886;83;26095;-74
2022/05/04 01:08:25;;;;;;;19.62;16.52;;;;;;;8.72;72.39;97222.94;1701666;83;25601;-75
2022/05/04 01:10:52;;;;;;;20.80;16.23;;;;;;;8.74;72.49;97226.78;1701496;84;27470;-75
2022/05/04 01:13:20;;;;;;;20.82;17.37;;;;;;;8.79;72.60;97225.66;1701639;84;25694;-74
2022/05/04 01:15:48;;;;;;;19.80;16.62;;;;;;;8.82;72.65;97220.67;1701646;84;25814;-77
2022/05/04 01:18:15;;;;;;;19.20;15.83;;;;;;;8.84;72.67;97227.20;1701412;84;26057;-75
2022/05/04 01:20:42;;;;;;;20.15;15.95;;;;;;;8.82;72.65;97219.33;1701431;84;25497;-76
2022/05/04 01:23:09;;;;;;;20.72;15.28;;;;;;;8.80;72.64;97225.46;1701492;84;27592;-74
2022/05/04 01:25:36;;;;;;;20.88;14.50;;;;;;;8.80;72.65;97220.59;1701414;84;25268;-73
2022/05/04 01:28:03;;;;;;;22.50;16.35;;;;;;;8.79;72.67;97225.14;1701669;84;25683;-74
2022/05/04 01:32:59;;;;;;;20.25;17.17;;;;;;;8.74;72.77;97226.27;1643926;87;25786;-74
2022/05/04 01:35:26;;;;;;;26.25;18.62;;;;;;;8.70;72.88;97222.31;1643802;87;28249;-75
2022/05/04 01:37:53;;;;;;;25.05;17.50;;;;;;;8.71;72.96;97228.01;1643501;87;25807;-74
2022/05/04 01:40:19;;;;;;;22.15;17.52;;;;;;;8.73;72.99;97234.02;1630331;87;25779;-75
2022/05/04 01:42:46;;;;;;;20.62;16.48;;;;;;;8.73;72.99;97235.36;1629160;88;25987;-74
2022/05/04 01:45:12;;;;;;;21.68;16.65;;;;;;;8.73;72.96;97238.57;1629155;88;25843;-74
2022/05/04 01:47:39;;;;;;;23.95;18.17;;;;;;;8.72;72.95;97232.88;1628957;88;27375;-76
2022/05/04 01:50:07;;;;;;;20.97;17.80;;;;;;;8.71;73.03;97234.73;1629057;88;25814;-74
2022/05/04 01:52:33;;;;;;;22.62;18.40;;;;;;;8.72;73.05;97237.73;1629025;88;25913;-76
2022/05/04 01:55:01;;;;;;;22.02;17.57;;;;;;;8.73;73.07;97231.33;1629052;88;25987;-77
2022/05/04 01:57:27;;;;;;;22.32;18.75;;;;;;;8.72;73.07;97237.73;1628980;88;25819;-75
2022/05/04 01:59:54;;;;;;;23.38;17.85;;;;;;;8.70;73.15;97234.42;1629011;88;27487;-75
2022/05/04 02:02:21;;;;;;;24.92;17.17;;;;;;;8.69;73.22;97232.79;1628817;88;26415;-74
2022/05/04 02:04:49;;;;;;;21.30;17.48;;;;;;;8.69;73.26;97236.00;1628882;88;25635;-75
2022/05/04 02:07:16;;;;;;;19.75;16.00;;;;;;;8.66;73.26;97234.02;1624063;88;26040;-78
2022/05/04 02:09:42;;;;;;;25.17;17.85;;;;;;;8.66;73.32;97243.44;1621591;88;25813;-74
2022/05/04 02:12:09;;;;;;;19.80;17.42;;;;;;;8.65;73.38;97243.13;1621689;88;27481;-74
2022/05/04 02:14:36;;;;;;;22.07;17.50;;;;;;;8.63;73.39;97238.97;1621429;88;25578;-76
2022/05/04 02:17:02;;;;;;;19.82;16.80;;;;;;;8.63;73.43;97238.97;1621738;88;25741;-75
2022/05/04 02:19:29;;;;;;;18.95;16.30;;;;;;;8.59;73.46;97237.70;1621545;88;26009;-74
2022/05/04 02:21:56;;;;;;;20.02;17.52;;;;;;;8.58;73.55;97233.35;1621773;88;25790;-76
2022/05/04 02:24:22;;;;;;;21.33;16.40;;;;;;;8.57;73.53;97239.25;1621526;88;27456;-74
2022/05/04 02:26:49;;;;;;;19.60;16.87;;;;;;;8.56;73.54;97232.75;1621558;88;25568;-77
2022/05/04 02:29:15;;;;;;;18.60;16.70;;;;;;;8.51;73.62;97233.34;1621581;88;25756;-74
2022/05/04 02:31:42;;;;;;;25.57;17.82;;;;;;;8.43;73.65;97233.54;1621686;88;26547;-75
2022/05/04 02:34:08;;;;;;;18.65;16.48;;;;;;;8.35;73.71;97234.21;1621531;88;25755;-75
2022/05/04 02:39:20;;;;;;;22.30;16.10;;;;;;;8.29;73.94;97234.48;1677978;85;25686;-76
2022/05/04 02:41:48;;;;;;;19.35;16.07;;;;;;;8.32;74.00;97240.84;1678589;85;25709;-74
2022/05/04 02:44:15;;;;;;;18.25;14.98;;;;;;;8.34;73.92;97241.97;1678408;85;26041;-74
2022/05/04 02:46:42;;;;;;;19.35;16.80;;;;;;;8.34;73.88;97239.27;1678546;85;25437;-74
2022/05/04 02:49:09;;;;;;;21.68;16.23;;;;;;;8.32;73.78;97242.19;1678374;85;27540;-75
2022/05/04 02:51:35;;;;;;;22.60;15.95;;;;;;;8.32;73.70;97243.53;1678337;85;25488;-75
2022/05/04 02:54:03;;;;;;;26.07;16.93;;;;;;;8.29;73.64;97242.04;1678374;85;25755;-76
2022/05/04 02:56:30;;;;;;;28.10;17.67;;;;;;;8.29;73.69;97243.38;1678205;85;25989;-75
2022/05/04 02:58:56;;;;;;;23.45;17.10;;;;;;;8.27;73.66;97244.09;1678569;85;25619;-78
2022/05/04 03:04:08;;;;;;;34.80;21.65;;;;;;;8.23;73.69;97244.17;1678206;85;25683;-75
2022/05/04 03:06:39;;;;;;;37.33;21.27;;;;;;;8.22;73.70;97254.61;1681545;84;25716;-78
2022/05/04 03:09:09;;;;;;;33.78;21.23;;;;;;;8.20;73.70;97251.31;1691686;84;26214;-75
2022/05/04 03:11:55;;;;;;;32.78;21.07;;;;;;;8.21;73.72;97245.42;1691708;84;25264;-76
2022/05/04 03:14:23;;;;;;;28.60;19.37;;;;;;;8.19;73.62;97248.31;1691711;84;27407;-75
2022/05/04 03:16:52;;;;;;;32.42;19.82;;;;;;;8.10;73.59;97248.14;1691454;84;25689;-73
2022/05/04 03:19:22;;;;;;;35.58;21.85;;;;;;;8.02;73.67;97249.66;1691670;84;25749;-76
2022/05/04 03:21:49;;;;;;;33.02;20.68;;;;;;;8.01;73.82;97248.00;1691663;84;26087;-74
2022/05/04 03:24:17;;;;;;;27.15;19.50;;;;;;;8.01;73.88;97246.66;1691764;84;25540;-76
2022/05/04 03:26:44;;;;;;;27.37;19.45;;;;;;;8.02;73.85;97248.83;1691454;84;27474;-77
2022/05/04 03:29:11;;;;;;;36.53;22.13;;;;;;;8.00;73.88;97251.71;1691325;84;26432;-75
2022/05/04 03:31:39;;;;;;;31.77;20.80;;;;;;;7.98;73.97;97253.77;1691699;84;25786;-75
2022/05/04 03:34:06;;;;;;;26.70;19.40;;;;;;;8.00;74.02;97252.22;1691727;84;26024;-77
2022/05/04 03:36:35;;;;;;;27.17;18.95;;;;;;;7.99;74.00;97261.31;1691544;84;25762;-74
2022/05/04 03:39:01;;;;;;;28.90;18.70;;;;;;;7.97;74.01;97259.37;1691657;84;28199;-74
2022/05/04 03:41:28;;;;;;;26.50;19.02;;;;;;;7.91;74.09;97256.43;1691383;84;25694;-74
2022/05/04 03:43:55;;;;;;;26.48;18.73;;;;;;;7.90;74.18;97264.17;1691796;84;27256;-75
2022/05/04 03:46:25;;;;;;;27.22;18.35;;;;;;;7.91;74.23;97263.66;1691840;84;26717;-77
2022/05/04 03:48:54;;;;;;;33.42;21.23;;;;;;;7.89;74.34;97271.92;1691890;84;25547;-76
2022/05/04 03:51:21;;;;;;;43.75;24.57;;;;;;;7.90;74.40;97268.20;1691888;84;27481;-74
2022/05/04 03:53:53;;;;;;;42.78;27.52;;;;;;;7.93;74.45;97272.36;1691669;84;25685;-76
2022/05/04 03:56:21;;;;;;;33.63;21.75;;;;;;;7.95;74.41;97270.31;1691923;84;25792;-78
2022/05/04 03:58:47;;;;;;;33.08;22.52;;;;;;;7.99;74.44;97268.03;1691845;84;25998;-75
2022/05/04 04:01:14;;;;;;;32.53;22.77;;;;;;;8.00;74.48;97268.36;1691940;84;25810;-75
2022/05/04 04:03:41;;;;;;;39.38;25.23;;;;;;;8.04;74.42;97268.28;1691829;84;27644;-74
2022/05/04 04:06:08;;;;;;;38.92;24.63;;;;;;;8.07;74.39;97270.58;1691857;84;25674;-74
2022/05/04 04:08:34;;;;;;;35.92;24.52;;;;;;;8.07;74.37;97266.03;1691473;84;26050;-74
2022/05/04 04:11:01;;;;;;;34.80;23.22;;;;;;;8.09;74.39;97272.02;1691722;84;26008;-76
2022/05/04 04:13:28;;;;;;;33.63;22.50;;;;;;;8.10;74.38;97276.38;1691774;84;25714;-74
2022/05/04 04:15:54;;;;;;;32.30;21.27;;;;;;;8.05;74.35;97276.16;1691820;84;27510;-75
2022/05/04 04:18:26;;;;;;;32.90;24.47;;;;;;;8.00;74.44;97283.14;1691762;84;25722;-77
2022/05/04 04:23:42;;;;;;;46.05;27.05;;;;;;;7.82;74.66;97287.19;1691661;84;26876;-74
2022/05/04 04:26:10;;;;;;;35.30;27.45;;;;;;;7.80;74.86;97290.58;1691884;84;25713;-74
2022/05/04 04:28:39;;;;;;;32.90;27.52;;;;;;;7.84;74.96;97297.74;1691662;84;27694;-74
2022/05/04 04:31:09;;;;;;;32.48;23.85;;;;;;;7.91;75.00;97298.60;1691738;84;26223;-78
2022/05/04 04:33:36;;;;;;;33.53;24.07;;;;;;;7.91;75.02;97299.43;1691776;84;25761;-75
2022/05/04 04:36:04;;;;;;;30.12;23.62;;;;;;;7.89;75.06;97300.65;1691718;84;25978;-74
2022/05/04 04:38:31;;;;;;;31.02;23.42;;;;;;;7.93;75.13;97303.27;1691849;84;25746;-75
2022/05/04 04:40:58;;;;;;;28.42;23.42;;;;;;;7.99;75.18;97309.19;1691651;84;28248;-75
2022/05/04 04:43:25;;;;;;;23.10;19.75;;;;;;;8.03;75.24;97311.81;1691698;84;25719;-73
2022/05/04 04:45:51;;;;;;;21.97;19.17;;;;;;;8.10;75.23;97309.97;1691827;84;25765;-75
2022/05/04 04:48:18;;;;;;;22.65;19.25;;;;;;;8.16;75.13;97314.58;1691712;84;26192;-75
2022/05/04 04:50:46;;;;;;;22.70;19.35;;;;;;;8.23;75.07;97308.70;1691944;84;25476;-75
2022/05/04 04:53:14;;;;;;;23.73;19.73;;;;;;;8.32;74.98;97309.94;1691697;84;27529;-75
2022/05/04 04:55:42;;;;;;;24.37;19.90;;;;;;;8.38;74.93;97310.47;1691326;84;26366;-74
2022/05/04 04:58:08;;;;;;;23.18;20.00;;;;;;;8.40;74.95;97309.25;1691843;84;25793;-77
2022/05/04 05:00:35;;;;;;;24.92;21.23;;;;;;;8.46;74.94;97308.95;1691839;84;25818;-75
2022/05/04 05:03:02;;;;;;;28.92;21.73;;;;;;;8.50;75.00;97309.70;1691809;84;25708;-76
2022/05/04 05:05:29;;;;;;;31.17;22.80;;;;;;;8.57;74.96;97302.47;1691892;84;28035;-77
2022/05/04 05:07:56;;;;;;;29.35;23.55;;;;;;;8.63;75.00;97307.58;1691478;84;25742;-76
2022/05/04 05:10:22;;;;;;;31.80;24.77;;;;;;;8.67;75.00;97308.84;1690844;84;25683;-75
2022/05/04 05:12:50;;;;;;;31.05;25.77;;;;;;;8.72;75.13;97305.02;1690220;84;26237;-75
2022/05/04 05:18:04;;;;;;;29.12;24.52;;;;;;;8.85;75.21;97314.48;1667569;86;27491;-75
2022/05/04 05:20:31;;;;;;;29.48;23.47;;;;;;;8.94;75.27;97310.56;1667782;85;25726;-76
2022/05/04 05:23:01;;;;;;;29.45;24.10;;;;;;;9.00;75.27;97315.16;1667887;86;25723;-77
2022/05/04 05:25:28;;;;;;;27.77;23.22;;;;;;;9.09;75.23;97318.48;1616606;88;25962;-75
2022/05/04 05:27:56;;;;;;;28.20;23.55;;;;;;;9.14;75.15;97320.56;1639144;87;25811;-78
2022/05/04 05:30:23;;;;;;;26.85;22.35;;;;;;;9.17;75.12;97318.83;1635876;86;27503;-75
2022/05/04 05:32:49;;;;;;;28.23;22.50;;;;;;;9.23;75.17;97320.68;1627896;88;25792;-74
2022/05/04 05:35:16;;;;;;;28.23;20.50;;;;;;;9.30;75.13;97320.99;1627875;88;25735;-74
2022/05/04 05:37:43;;;;;;;25.02;19.95;;;;;;;9.37;75.01;97316.98;1627720;88;26145;-75
2022/05/04 05:40:13;;;;;;;22.25;19.60;;;;;;;9.47;75.00;97314.70;1627252;88;25269;-77
2022/05/04 05:42:39;;;;;;;21.02;17.48;;;;;;;9.56;74.99;97318.01;1627894;88;27405;-75
2022/05/04 05:45:08;;;;;;;22.00;18.00;;;;;;;9.62;75.04;97309.94;1627598;88;25321;-74
2022/05/04 05:47:34;;;;;;;21.35;16.00;;;;;;;9.71;75.03;97311.38;1628002;87;25376;-74
2022/05/04 05:50:01;;;;;;;20.05;17.02;;;;;;;9.81;74.96;97316.34;1637715;87;26041;-75
2022/05/04 05:52:27;;;;;;;22.98;17.35;;;;;;;9.88;74.95;97317.70;1637511;87;25755;-75
2022/05/04 05:54:54;;;;;;;24.20;18.37;;;;;;;9.97;74.92;97309.70;1637741;87;27333;-77
2022/05/04 05:57:22;;;;;;;21.30;18.17;;;;;;;10.08;74.91;97315.80;1637298;87;25692;-75
2022/05/04 05:59:49;;;;;;;20.08;16.05;;;;;;;10.17;74.83;97309.66;1637643;87;25767;-75
2022/05/04 06:02:15;;;;;;;20.08;16.93;;;;;;;10.27;74.75;97312.25;1634386;86;26828;-76
2022/05/04 06:04:42;;;;;;;20.17;15.88;;;;;;;10.36;74.64;97312.35;1633980;87;25771;-75
2022/05/04 06:07:09;;;;;;;20.77;15.35;;;;;;;10.45;74.51;97307.02;1632333;87;27370;-75
2022/05/04 06:09:35;;;;;;;20.05;15.25;;;;;;;10.55;74.22;97307.09;1618861;87;25769;-76
2022/05/04 06:12:02;;;;;;;17.50;15.30;;;;;;;10.62;73.95;97311.95;1627926;87;25886;-75
2022/05/04 06:14:28;;;;;;;18.23;15.85;;;;;;;10.71;73.89;97306.61;1628421;87;26054;-76
2022/05/04 06:16:55;;;;;;;19.87;15.70;;;;;;;10.81;73.96;97308.33;1626782;87;25875;-76
2022/05/04 06:19:22;;;;;;;16.90;15.10;;;;;;;10.90;73.95;97312.95;1628171;87;27436;-76
2022/05/04 06:21:48;;;;;;;16.97;14.43;;;;;;;10.97;73.62;97307.84;1639362;85;25767;-75
2022/05/04 06:24:15;;;;;;;19.15;15.65;;;;;;;11.08;73.51;97311.72;1675381;85;25702;-76
2022/05/04 06:26:41;;;;;;;19.60;15.75;;;;;;;11.19;73.34;97313.21;1641384;86;25981;-79
2022/05/04 06:29:08;;;;;;;18.27;15.15;;;;;;;11.29;73.12;97318.13;1641294;85;25235;-76
2022/05/04 06:34:19;;;;;;;17.20;14.75;;;;;;;11.50;72.79;97315.59;1615238;88;25721;-76
2022/05/04 06:36:46;;;;;;;16.05;14.35;;;;;;;11.62;72.51;97308.95;1615326;87;25782;-76
2022/05/04 06:39:12;;;;;;;20.17;15.08;;;;;;;11.73;72.26;97305.53;1615355;88;25985;-80
2022/05/04 06:41:40;;;;;;;18.95;14.85;;;;;;;11.83;72.04;97300.50;1615496;88;25831;-76
2022/05/04 06:44:07;;;;;;;15.80;14.05;;;;;;;11.95;71.83;97306.02;1615251;88;27463;-76
2022/05/04 06:46:36;;;;;;;17.67;13.75;;;;;;;12.04;71.68;97304.15;1615275;88;25804;-78
2022/05/04 06:49:02;;;;;;;18.87;13.88;;;;;;;12.21;72.08;97304.38;1643193;85;25757;-79
2022/05/04 06:51:29;;;;;;;16.42;13.28;;;;;;;12.38;71.63;97309.52;1643178;85;26587;-77
2022/05/04 06:53:55;;;;;;;17.85;14.13;;;;;;;12.52;71.18;97310.20;1643113;85;25710;-77
2022/05/04 06:56:22;;;;;;;18.70;13.85;;;;;;;12.63;70.89;97307.56;1643231;85;27542;-76
2022/05/04 06:58:48;;;;;;;17.57;14.78;;;;;;;12.77;70.71;97307.41;1643094;85;25733;-78
2022/05/04 07:01:15;;;;;;;21.17;14.65;;;;;;;12.89;70.46;97310.47;1643411;85;25822;-76
2022/05/04 07:03:41;;;;;;;18.35;14.25;;;;;;;13.00;70.32;97298.03;1643332;85;26077;-77
2022/05/04 07:06:08;;;;;;;16.48;14.00;;;;;;;13.10;70.27;97303.72;1642823;85;26636;-76
2022/05/04 07:08:35;;;;;;;15.75;12.33;;;;;;;13.19;70.18;97299.66;1642240;85;27439;-78
2022/05/04 07:11:01;;;;;;;13.83;12.28;;;;;;;13.30;69.81;97296.68;1641628;87;25784;-78
2022/05/04 07:13:28;;;;;;;16.35;12.70;;;;;;;13.43;69.38;97299.73;1641708;87;25809;-77
2022/05/04 07:15:55;;;;;;;14.38;12.55;;;;;;;13.57;69.22;97297.94;1642779;85;26847;-80
2022/05/04 07:18:22;;;;;;;16.73;12.88;;;;;;;13.75;69.17;97303.82;1642683;85;25706;-78
2022/05/04 07:20:48;;;;;;;16.23;13.13;;;;;;;13.92;68.90;97299.87;1642988;85;27481;-76
2022/05/04 07:23:15;;;;;;;14.05;12.35;;;;;;;14.06;68.44;97300.77;1642792;85;25721;-76
2022/05/04 07:25:42;;;;;;;13.93;12.47;;;;;;;14.22;68.00;97296.52;1634704;87;25758;-76
2022/05/04 07:28:08;;;;;;;16.37;11.40;;;;;;;14.37;67.51;97297.38;1615229;88;25977;-78
2022/05/04 07:30:35;;;;;;;11.90;10.70;;;;;;;14.52;66.91;97297.74;1644511;85;25713;-75
2022/05/04 07:33:02;;;;;;;12.82;9.83;;;;;;;14.71;66.59;97301.97;1645760;85;27393;-79
2022/05/04 07:35:29;;;;;;;10.90;9.65;;;;;;;14.90;65.86;97293.64;1646551;86;25827;-77
2022/05/04 07:37:55;;;;;;;10.85;9.58;;;;;;;15.20;65.39;97296.97;1642953;86;25722;-76
2022/05/04 07:43:07;;;;;;;10.93;9.48;;;;;;;15.98;64.08;97293.44;1615152;88;25566;-76
2022/05/04 07:45:34;;;;;;;11.18;8.40;;;;;;;16.48;63.26;97292.53;1643217;85;27385;-76
2022/05/04 07:48:01;;;;;;;11.70;9.00;;;;;;;16.89;62.45;97294.76;1615247;87;25840;-75
2022/05/04 07:50:28;;;;;;;9.80;8.33;;;;;;;17.33;61.81;97297.42;1615303;88;25804;-79
2022/05/04 07:52:55;;;;;;;10.58;8.40;;;;;;;17.74;61.02;97294.59;1643167;87;26004;-78
2022/05/04 07:55:21;;;;;;;10.58;8.15;;;;;;;18.14;60.40;97295.44;1615385;88;25797;-76
2022/05/04 07:57:49;;;;;;;8.25;7.47;;;;;;;18.52;59.59;97292.14;1615356;88;27387;-76
2022/05/04 08:05:46;;;;;;;8.45;7.65;;;;;;;19.50;57.76;97290.94;1615457;88;26965;-78
2022/05/04 08:08:12;;;;;;;7.83;7.12;;;;;;;19.87;56.81;97287.97;1650010;85;25742;-78
2022/05/04 08:10:40;;;;;;;8.18;6.95;;;;;;;20.20;56.25;97281.09;1636868;87;28197;-77
2022/05/04 08:13:07;;;;;;;9.65;7.47;;;;;;;20.55;55.59;97281.06;1609373;89;25950;-77
2022/05/04 08:15:35;;;;;;;7.87;7.15;;;;;;;20.83;54.97;97283.73;1653265;86;25715;-75
2022/05/04 08:18:02;;;;;;;11.03;6.92;;;;;;;21.10;54.29;97271.00;1653392;86;25689;-76
2022/05/04 08:20:29;;;;;;;7.65;6.60;;;;;;;21.36;53.47;97281.33;1653612;86;25278;-76
2022/05/04 08:22:57;;;;;;;7.62;6.53;;;;;;;21.37;52.39;97275.56;1653553;86;27362;-76
2022/05/04 08:25:25;;;;;;;7.95;6.65;;;;;;;21.59;51.85;97282.00;1653390;86;25963;-77
2022/05/04 08:27:51;;;;;;;8.70;6.10;;;;;;;21.92;50.54;97277.64;1653555;86;25936;-77
2022/05/04 08:30:20;;;;;;;7.12;6.42;;;;;;;22.27;50.58;97283.41;1653684;86;26140;-75
2022/05/04 08:32:48;;;;;;;7.75;7.05;;;;;;;22.69;49.78;97278.59;1653777;86;25704;-75
2022/05/04 08:35:17;;;;;;;8.83;6.22;;;;;;;23.11;49.70;97281.14;1636159;86;25891;-77
2022/05/04 08:37:44;;;;;;;7.65;6.05;;;;;;;23.47;48.92;97276.79;1653489;85;25745;-75
2022/05/04 08:40:12;;;;;;;6.60;5.90;;;;;;;23.87;48.20;97284.23;1653525;86;25735;-74
2022/05/04 08:42:44;;;;;;;8.15;6.37;;;;;;;24.03;47.26;97282.84;1653288;86;26147;-77
2022/05/04 08:45:13;;;;;;;8.38;5.80;;;;;;;23.74;46.45;97284.98;1611029;89;25378;-75
2022/05/04 08:47:42;;;;;;;7.33;6.53;;;;;;;23.53;46.32;97283.91;1611078;89;28147;-75
2022/05/04 08:50:12;;;;;;;6.72;6.00;;;;;;;23.08;45.50;97288.05;1610889;89;25840;-75
2022/05/04 08:52:44;;;;;;;7.15;6.20;;;;;;;22.57;45.25;97278.99;1610979;89;25805;-78
2022/05/04 08:55:11;;;;;;;7.12;5.62;;;;;;;22.56;45.47;97275.97;1611164;89;26902;-79
2022/05/04 08:57:39;;;;;;;8.88;5.90;;;;;;;23.13;45.02;97283.05;1610993;89;25838;-74
2022/05/04 09:00:10;;;;;;;8.55;5.40;;;;;;;23.72;44.40;97278.94;1610944;89;27703;-74
2022/05/04 09:02:35;;;;;;;6.17;5.47;;;;;;;24.26;43.48;97275.62;1610813;89;26372;-75
2022/05/04 09:05:22;;;;;;;6.90;5.67;;;;;;;24.69;42.55;97268.73;1610767;89;25958;-76
2022/05/04 09:07:51;;;;;;;10.23;5.67;;;;;;;24.84;42.26;97275.09;1622013;88;26067;-75
2022/05/04 09:10:34;;;;;;;5.87;5.17;;;;;;;24.93;41.62;97265.81;1645508;87;25803;-76
2022/05/04 09:13:02;;;;;;;6.22;5.47;;;;;;;25.16;41.43;97269.48;1646276;87;27413;-77
2022/05/04 09:15:35;;;;;;;7.42;5.40;;;;;;;25.41;41.35;97271.69;1646046;87;25824;-76
2022/05/04 09:18:07;;;;;;;6.85;5.62;;;;;;;25.21;39.69;97274.91;1646236;87;25859;-75
2022/05/04 09:20:52;;;;;;;7.60;6.15;;;;;;;24.87;39.85;97272.55;1646210;87;26193;-75
2022/05/04 09:23:32;;;;;;;7.70;5.47;;;;;;;24.47;39.73;97278.27;1646408;87;27396;-75
2022/05/04 09:26:02;;;;;;;9.03;5.70;;;;;;;23.75;39.53;97284.69;1646523;87;28074;-76
2022/05/04 09:28:30;;;;;;;5.47;4.90;;;;;;;23.75;39.53;97284.69;1646164;87;25836;-73
2022/05/04 09:30:59;;;;;;;6.53;5.62;;;;;;;23.36;39.19;97286.31;1646272;87;25832;-76
2022/05/04 09:33:32;;;;;;;10.03;5.67;;;;;;;23.00;39.31;97285.95;1645967;87;26045;-76
2022/05/04 09:36:00;;;;;;;7.22;5.30;;;;;;;22.78;39.42;97291.17;1646258;87;26079;-78
2022/05/04 09:46:52;;;;;;;6.17;5.33;;;;;;;21.76;39.50;97282.42;1674471;85;26085;-74
2022/05/04 09:49:28;;;;;;;8.13;5.08;;;;;;;21.62;39.67;97285.53;1611353;88;26501;-75
2022/05/04 09:51:55;;;;;;;9.78;5.78;;;;;;;21.63;40.25;97278.11;1608830;89;27401;-75
2022/05/04 09:54:25;;;;;;;6.03;5.42;;;;;;;21.81;40.18;97283.77;1611202;89;25603;-77
2022/05/04 09:56:57;;;;;;;7.25;5.65;;;;;;;21.95;39.82;97279.81;1611360;89;25813;-76
2022/05/04 09:59:29;;;;;;;7.97;5.58;;;;;;;22.04;39.15;97278.67;1611325;89;26060;-76
2022/05/04 10:01:59;;;;;;;7.78;5.08;;;;;;;22.02;38.95;97276.76;1611488;89;25752;-77
2022/05/04 10:04:27;;;;;;;10.10;5.72;;;;;;;22.03;38.92;97271.53;1611372;89;27397;-76
2022/05/04 10:06:55;;;;;;;5.97;5.35;;;;;;;22.18;38.97;97270.03;1611323;89;25765;-76
2022/05/04 10:09:22;;;;;;;7.90;5.47;;;;;;;22.28;38.30;97269.92;1614876;88;25920;-76
2022/05/04 10:11:57;;;;;;;9.08;5.37;;;;;;;22.18;38.07;97261.78;1619201;88;27095;-76
2022/05/04 10:14:27;;;;;;;7.50;5.50;;;;;;;22.02;37.61;97264.39;1619313;88;25771;-76
2022/05/04 10:17:14;;;;;;;7.25;5.67;;;;;;;21.84;38.41;97275.52;1594944;89;28729;-76
2022/05/04 10:19:54;;;;;;;7.85;5.87;;;;;;;21.72;38.88;97273.13;1594043;89;25901;-76
2022/05/04 10:22:39;;;;;;;8.93;6.35;;;;;;;21.63;39.40;97269.88;1522531;92;25760;-75
2022/05/04 10:25:07;;;;;;;7.00;5.80;;;;;;;21.56;38.91;97267.46;1522604;94;26580;-76
2022/05/04 10:27:40;;;;;;;8.95;5.83;;;;;;;21.85;40.20;97272.48;1522547;94;25896;-77
2022/05/04 10:33:06;;;;;;;8.58;5.55;;;;;;;21.69;39.34;97270.94;1536840;91;25903;-76
2022/05/04 10:38:21;;;;;;;8.95;5.85;;;;;;;21.24;38.67;97261.62;1495375;95;26102;-76
2022/05/04 10:40:53;;;;;;;;;;;;;;;21.24;38.67;97261.62;1497856;95;25811;-76
2022/05/04 10:43:47;;;;;;;6.03;4.97;;;;;;;21.02;39.08;97261.96;1495547;95;27364;-75
2022/05/04 10:46:21;;;;;;;9.15;5.22;;;;;;;20.88;39.67;97267.26;1495242;95;25825;-75
2022/05/04 10:48:57;;;;;;;7.35;5.53;;;;;;;20.85;39.59;97262.33;1495635;95;25794;-75
2022/05/04 10:51:37;;;;;;;8.25;6.45;;;;;;;20.90;39.80;97258.17;1495490;95;26021;-78
2022/05/04 10:54:11;;;;;;;9.30;5.30;;;;;;;20.96;39.44;97258.98;1528467;93;25754;-77
2022/05/04 10:56:50;;;;;;;6.55;5.67;;;;;;;21.08;39.69;97232.03;1541367;93;28049;-76
2022/05/04 10:59:35;;;;;;;12.07;5.87;;;;;;;21.35;39.34;97260.47;1541257;93;26544;-77
2022/05/04 11:02:04;;;;;;;9.40;5.58;;;;;;;21.44;39.64;97251.89;1541399;93;25950;-76
2022/05/04 11:04:33;;;;;;;9.33;5.85;;;;;;;21.32;39.68;97234.95;1540626;93;26046;-76
2022/05/04 11:07:07;;;;;;;6.20;5.25;;;;;;;21.26;39.91;97214.92;1540584;93;25672;-75
2022/05/04 11:09:47;;;;;;;9.03;5.55;;;;;;;21.40;39.72;97246.69;1546527;92;27421;-76
2022/05/04 11:12:13;;;;;;;8.08;5.60;;;;;;;21.14;39.29;97224.02;1554322;92;25827;-76
2022/05/04 11:14:40;;;;;;;8.48;5.95;;;;;;;21.14;39.29;97224.02;1565609;91;26019;-76
2022/05/04 11:17:13;;;;;;;8.73;5.70;;;;;;;21.08;39.79;97248.50;1567724;91;26039;-75
2022/05/04 11:19:48;;;;;;;6.67;5.60;;;;;;;21.05;39.34;97247.13;1542306;92;25758;-75
2022/05/04 11:22:17;;;;;;;7.67;5.72;;;;;;;21.19;39.28;97240.51;1540012;92;28548;-76
2022/05/04 11:24:44;;;;;;;7.22;5.53;;;;;;;21.23;38.87;97248.45;1542377;92;25862;-76
2022/05/04 11:27:15;;;;;;;8.28;5.95;;;;;;;21.18;38.97;97245.17;1542707;92;25862;-77
2022/05/04 11:29:42;;;;;;;8.50;5.40;;;;;;;21.07;38.59;97238.08;1539996;92;25996;-74
2022/05/04 11:32:09;;;;;;;7.97;5.17;;;;;;;21.07;38.59;97238.08;1542594;92;25832;-77
2022/05/04 11:34:40;;;;;;;11.30;5.53;;;;;;;20.93;38.29;97243.90;1542458;92;28263;-77
2022/05/04 11:39:42;;;;;;;7.25;5.75;;;;;;;20.88;38.08;97252.17;1529105;93;25803;-75
2022/05/04 11:42:09;;;;;;;6.55;4.92;;;;;;;20.82;38.07;97246.42;1582137;89;26079;-75
2022/05/04 11:44:46;;;;;;;5.78;5.05;;;;;;;20.81;38.85;97254.38;1607271;89;25866;-76
2022/05/04 11:47:09;;;;;;;9.00;5.28;;;;;;;20.82;39.24;97246.42;1603819;89;27452;-76
2022/05/04 11:49:36;;;;;;;8.95;5.53;;;;;;;20.93;39.74;97243.90;1610757;88;25897;-75
2022/05/04 11:52:05;;;;;;;7.22;5.12;;;;;;;21.18;40.37;97245.17;1610818;88;25847;-75
2022/05/04 11:54:32;;;;;;;8.68;5.53;;;;;;;21.40;39.55;97238.45;1607301;88;27038;-75
2022/05/04 11:56:59;;;;;;;7.87;5.45;;;;;;;21.52;39.49;97234.80;1607459;89;25985;-76
2022/05/04 11:59:31;;;;;;;7.03;5.00;;;;;;;21.61;39.20;97233.11;1608004;88;28298;-76
2022/05/04 12:02:00;;;;;;;5.15;4.65;;;;;;;21.64;39.17;97232.52;1613409;88;25866;-76
2022/05/04 12:04:27;;;;;;;8.83;5.00;;;;;;;21.61;38.99;97231.73;1611777;88;25791;-77
2022/05/04 12:06:56;;;;;;;6.35;5.70;;;;;;;21.30;39.16;97189.92;1617617;86;26642;-75
2022/05/04 12:09:23;;;;;;;7.97;5.28;;;;;;;21.48;38.70;97229.63;1639914;86;25858;-74
2022/05/04 12:11:50;;;;;;;7.30;5.37;;;;;;;21.39;38.64;97230.77;1637433;86;27484;-75
2022/05/04 12:14:17;;;;;;;6.10;5.03;;;;;;;21.30;38.12;97231.11;1638436;86;25730;-77
2022/05/04 12:16:46;;;;;;;6.40;5.17;;;;;;;21.02;38.25;97207.90;1639787;85;25832;-77